<?xml version="1.0" encoding="UTF-8" standalone="no" ?>
<gpx xmlns="http://www.topografix.com/GPX/1/1" xmlns:xsi="http://www.w3.org/2001/XMLSchema-instance" xsi:schemaLocation="http://www.topografix.com/GPX/1/1 http://www.topografix.com/GPX/1/1/gpx.xsd" version="1.1" creator="VisuGPX - https://www.visugpx.com">
  <metadata>
    <name>Excellent Petit sentier des Derandières 08/2013</name>
    <desc><![CDATA[Excellent Petit sentier des Derandières 08/2013]]></desc>
  </metadata>
  <trk>
    <name><![CDATA[Les Derandieres 2013-08-05 18:31]]></name>
    <desc><![CDATA[<h1>OruxMaps</h1><br /><hr align="center" width="480" style="height: 2px; width: 517px"/><h2>Nom: Les Derandieres 2013-08-05 18:31</h2><br /><p>Temps de départ: 08/05/2013 18:31</p><p>Temps d'arrivée: 08/05/2013 19:57</p><p>Distance: 14,7 km (01:25)</p><p>Temps déplacement: 01:04</p><p>Vitesse moyenne: 10,3 km/h</p><p>Vitesse moyenne: 13,7 km/h</p><p>Vitess Max.: 74,4 km/h</p><p>Altitude minimale: 559 m</p><p>Altitude maximale: 1590 m</p><p>Vitesse d'élévation: 669,6 m/h</p><p>Vitesse de descente: -1392 m/h</p><p>Gain Altitude: 289 m</p><p>Perte Altitude: -1117 m</p><p>Temps d'élévation: 00:25</p><p>Temps de descente: 00:48</p><hr align="center" width="480" style="height: 2px; width: 517px"/>]]></desc>
    <trkseg>
      <trkpt lat="45.4183" lon="6.36342">
        <ele>1586.17</ele>
        <time>2013-08-05T16:31:32Z</time>
      </trkpt>
      <trkpt lat="45.41814" lon="6.3633">
        <ele>1590.26</ele>
        <time>2013-08-05T16:31:42Z</time>
      </trkpt>
      <trkpt lat="45.418" lon="6.36309">
        <ele>1587.28</ele>
        <time>2013-08-05T16:31:51Z</time>
      </trkpt>
      <trkpt lat="45.41743" lon="6.36237">
        <ele>1569.56</ele>
        <time>2013-08-05T16:34:32Z</time>
      </trkpt>
      <trkpt lat="45.41751" lon="6.36212">
        <ele>1570.7</ele>
        <time>2013-08-05T16:34:45Z</time>
      </trkpt>
      <trkpt lat="45.41764" lon="6.36231">
        <ele>1578.25</ele>
        <time>2013-08-05T16:36:11Z</time>
      </trkpt>
      <trkpt lat="45.41754" lon="6.36208">
        <ele>1581.12</ele>
        <time>2013-08-05T16:36:51Z</time>
      </trkpt>
      <trkpt lat="45.4176" lon="6.36179">
        <ele>1583.59</ele>
        <time>2013-08-05T16:38:16Z</time>
      </trkpt>
      <trkpt lat="45.41781" lon="6.36176">
        <ele>1582.9</ele>
        <time>2013-08-05T16:38:22Z</time>
      </trkpt>
      <trkpt lat="45.418" lon="6.36178">
        <ele>1581.58</ele>
        <time>2013-08-05T16:38:25Z</time>
      </trkpt>
      <trkpt lat="45.41822" lon="6.36175">
        <ele>1580.3</ele>
        <time>2013-08-05T16:38:29Z</time>
      </trkpt>
      <trkpt lat="45.41822" lon="6.3615">
        <ele>1576.16</ele>
        <time>2013-08-05T16:38:36Z</time>
      </trkpt>
      <trkpt lat="45.4181" lon="6.36131">
        <ele>1573.8</ele>
        <time>2013-08-05T16:38:40Z</time>
      </trkpt>
      <trkpt lat="45.41806" lon="6.36105">
        <ele>1568.8</ele>
        <time>2013-08-05T16:38:45Z</time>
      </trkpt>
      <trkpt lat="45.41826" lon="6.36099">
        <ele>1563.4</ele>
        <time>2013-08-05T16:39:00Z</time>
      </trkpt>
      <trkpt lat="45.41843" lon="6.36117">
        <ele>1560.45</ele>
        <time>2013-08-05T16:39:03Z</time>
      </trkpt>
      <trkpt lat="45.41858" lon="6.36132">
        <ele>1556.9</ele>
        <time>2013-08-05T16:39:06Z</time>
      </trkpt>
      <trkpt lat="45.41872" lon="6.36115">
        <ele>1553.95</ele>
        <time>2013-08-05T16:39:12Z</time>
      </trkpt>
      <trkpt lat="45.41872" lon="6.36084">
        <ele>1552.77</ele>
        <time>2013-08-05T16:39:16Z</time>
      </trkpt>
      <trkpt lat="45.41871" lon="6.36053">
        <ele>1550.02</ele>
        <time>2013-08-05T16:39:20Z</time>
      </trkpt>
      <trkpt lat="45.41884" lon="6.36036">
        <ele>1547.33</ele>
        <time>2013-08-05T16:39:27Z</time>
      </trkpt>
      <trkpt lat="45.41875" lon="6.36011">
        <ele>1546.57</ele>
        <time>2013-08-05T16:39:38Z</time>
      </trkpt>
      <trkpt lat="45.41869" lon="6.35987">
        <ele>1546.43</ele>
        <time>2013-08-05T16:39:51Z</time>
      </trkpt>
      <trkpt lat="45.41873" lon="6.3596">
        <ele>1546.48</ele>
        <time>2013-08-05T16:39:58Z</time>
      </trkpt>
      <trkpt lat="45.41871" lon="6.35932">
        <ele>1546.36</ele>
        <time>2013-08-05T16:40:05Z</time>
      </trkpt>
      <trkpt lat="45.41865" lon="6.35908">
        <ele>1546.32</ele>
        <time>2013-08-05T16:40:12Z</time>
      </trkpt>
      <trkpt lat="45.41864" lon="6.3588">
        <ele>1546.5</ele>
        <time>2013-08-05T16:40:21Z</time>
      </trkpt>
      <trkpt lat="45.41863" lon="6.35852">
        <ele>1546.92</ele>
        <time>2013-08-05T16:40:29Z</time>
      </trkpt>
      <trkpt lat="45.41859" lon="6.35827">
        <ele>1547.48</ele>
        <time>2013-08-05T16:40:37Z</time>
      </trkpt>
      <trkpt lat="45.41855" lon="6.35799">
        <ele>1548.09</ele>
        <time>2013-08-05T16:40:45Z</time>
      </trkpt>
      <trkpt lat="45.41858" lon="6.35771">
        <ele>1548.92</ele>
        <time>2013-08-05T16:40:55Z</time>
      </trkpt>
      <trkpt lat="45.41868" lon="6.35747">
        <ele>1549.72</ele>
        <time>2013-08-05T16:41:04Z</time>
      </trkpt>
      <trkpt lat="45.41875" lon="6.3572">
        <ele>1550.41</ele>
        <time>2013-08-05T16:41:12Z</time>
      </trkpt>
      <trkpt lat="45.41882" lon="6.35694">
        <ele>1551.29</ele>
        <time>2013-08-05T16:41:22Z</time>
      </trkpt>
      <trkpt lat="45.4189" lon="6.35669">
        <ele>1551.98</ele>
        <time>2013-08-05T16:41:31Z</time>
      </trkpt>
      <trkpt lat="45.41897" lon="6.35645">
        <ele>1552.63</ele>
        <time>2013-08-05T16:41:40Z</time>
      </trkpt>
      <trkpt lat="45.41897" lon="6.35618">
        <ele>1553.36</ele>
        <time>2013-08-05T16:41:48Z</time>
      </trkpt>
      <trkpt lat="45.41891" lon="6.35593">
        <ele>1554.47</ele>
        <time>2013-08-05T16:41:59Z</time>
      </trkpt>
      <trkpt lat="45.4188" lon="6.35572">
        <ele>1555.86</ele>
        <time>2013-08-05T16:42:12Z</time>
      </trkpt>
      <trkpt lat="45.4188" lon="6.35545">
        <ele>1556.98</ele>
        <time>2013-08-05T16:42:22Z</time>
      </trkpt>
      <trkpt lat="45.41885" lon="6.35519">
        <ele>1557.93</ele>
        <time>2013-08-05T16:42:27Z</time>
      </trkpt>
      <trkpt lat="45.41895" lon="6.3549">
        <ele>1559.35</ele>
        <time>2013-08-05T16:42:31Z</time>
      </trkpt>
      <trkpt lat="45.41908" lon="6.35463">
        <ele>1559.67</ele>
        <time>2013-08-05T16:42:35Z</time>
      </trkpt>
      <trkpt lat="45.41909" lon="6.35435">
        <ele>1559.49</ele>
        <time>2013-08-05T16:42:39Z</time>
      </trkpt>
      <trkpt lat="45.41913" lon="6.35408">
        <ele>1558.48</ele>
        <time>2013-08-05T16:42:42Z</time>
      </trkpt>
      <trkpt lat="45.41914" lon="6.35381">
        <ele>1557.1</ele>
        <time>2013-08-05T16:42:45Z</time>
      </trkpt>
      <trkpt lat="45.41897" lon="6.35367">
        <ele>1555.66</ele>
        <time>2013-08-05T16:42:51Z</time>
      </trkpt>
      <trkpt lat="45.41878" lon="6.35368">
        <ele>1555.06</ele>
        <time>2013-08-05T16:42:57Z</time>
      </trkpt>
      <trkpt lat="45.4186" lon="6.35365">
        <ele>1553.87</ele>
        <time>2013-08-05T16:43:00Z</time>
      </trkpt>
      <trkpt lat="45.41846" lon="6.35338">
        <ele>1551.2</ele>
        <time>2013-08-05T16:43:06Z</time>
      </trkpt>
      <trkpt lat="45.41835" lon="6.35314">
        <ele>1549.35</ele>
        <time>2013-08-05T16:43:09Z</time>
      </trkpt>
      <trkpt lat="45.41822" lon="6.35286">
        <ele>1547.06</ele>
        <time>2013-08-05T16:43:12Z</time>
      </trkpt>
      <trkpt lat="45.41811" lon="6.35256">
        <ele>1544.97</ele>
        <time>2013-08-05T16:43:15Z</time>
      </trkpt>
      <trkpt lat="45.41802" lon="6.35226">
        <ele>1543.33</ele>
        <time>2013-08-05T16:43:18Z</time>
      </trkpt>
      <trkpt lat="45.41794" lon="6.35196">
        <ele>1542.25</ele>
        <time>2013-08-05T16:43:21Z</time>
      </trkpt>
      <trkpt lat="45.41788" lon="6.35167">
        <ele>1541.31</ele>
        <time>2013-08-05T16:43:24Z</time>
      </trkpt>
      <trkpt lat="45.41778" lon="6.3514">
        <ele>1540.37</ele>
        <time>2013-08-05T16:43:27Z</time>
      </trkpt>
      <trkpt lat="45.41769" lon="6.35111">
        <ele>1539.51</ele>
        <time>2013-08-05T16:43:30Z</time>
      </trkpt>
      <trkpt lat="45.4176" lon="6.35081">
        <ele>1538.83</ele>
        <time>2013-08-05T16:43:33Z</time>
      </trkpt>
      <trkpt lat="45.41751" lon="6.3505">
        <ele>1538.3</ele>
        <time>2013-08-05T16:43:36Z</time>
      </trkpt>
      <trkpt lat="45.41741" lon="6.35022">
        <ele>1537.86</ele>
        <time>2013-08-05T16:43:39Z</time>
      </trkpt>
      <trkpt lat="45.41734" lon="6.34995">
        <ele>1537.56</ele>
        <time>2013-08-05T16:43:42Z</time>
      </trkpt>
      <trkpt lat="45.41728" lon="6.34966">
        <ele>1537.07</ele>
        <time>2013-08-05T16:43:45Z</time>
      </trkpt>
      <trkpt lat="45.41719" lon="6.34934">
        <ele>1536.39</ele>
        <time>2013-08-05T16:43:48Z</time>
      </trkpt>
      <trkpt lat="45.4171" lon="6.349">
        <ele>1535.53</ele>
        <time>2013-08-05T16:43:51Z</time>
      </trkpt>
      <trkpt lat="45.41705" lon="6.34875">
        <ele>1534.81</ele>
        <time>2013-08-05T16:43:53Z</time>
      </trkpt>
      <trkpt lat="45.41702" lon="6.34849">
        <ele>1534.02</ele>
        <time>2013-08-05T16:43:55Z</time>
      </trkpt>
      <trkpt lat="45.417" lon="6.34823">
        <ele>1533.19</ele>
        <time>2013-08-05T16:43:57Z</time>
      </trkpt>
      <trkpt lat="45.41702" lon="6.34795">
        <ele>1532.36</ele>
        <time>2013-08-05T16:43:59Z</time>
      </trkpt>
      <trkpt lat="45.41705" lon="6.34764">
        <ele>1531.37</ele>
        <time>2013-08-05T16:44:02Z</time>
      </trkpt>
      <trkpt lat="45.41698" lon="6.34733">
        <ele>1530.55</ele>
        <time>2013-08-05T16:44:05Z</time>
      </trkpt>
      <trkpt lat="45.41685" lon="6.347">
        <ele>1529.78</ele>
        <time>2013-08-05T16:44:08Z</time>
      </trkpt>
      <trkpt lat="45.41673" lon="6.34671">
        <ele>1528.9</ele>
        <time>2013-08-05T16:44:11Z</time>
      </trkpt>
      <trkpt lat="45.41663" lon="6.34648">
        <ele>1528.2</ele>
        <time>2013-08-05T16:44:14Z</time>
      </trkpt>
      <trkpt lat="45.4165" lon="6.34622">
        <ele>1528.06</ele>
        <time>2013-08-05T16:44:18Z</time>
      </trkpt>
      <trkpt lat="45.41634" lon="6.346">
        <ele>1527.53</ele>
        <time>2013-08-05T16:44:22Z</time>
      </trkpt>
      <trkpt lat="45.41621" lon="6.34574">
        <ele>1526.85</ele>
        <time>2013-08-05T16:44:25Z</time>
      </trkpt>
      <trkpt lat="45.41604" lon="6.34543">
        <ele>1525.56</ele>
        <time>2013-08-05T16:44:28Z</time>
      </trkpt>
      <trkpt lat="45.41592" lon="6.3452">
        <ele>1524.23</ele>
        <time>2013-08-05T16:44:30Z</time>
      </trkpt>
      <trkpt lat="45.41583" lon="6.34496">
        <ele>1522.73</ele>
        <time>2013-08-05T16:44:32Z</time>
      </trkpt>
      <trkpt lat="45.41579" lon="6.34471">
        <ele>1521.38</ele>
        <time>2013-08-05T16:44:34Z</time>
      </trkpt>
      <trkpt lat="45.41587" lon="6.34438">
        <ele>1519.79</ele>
        <time>2013-08-05T16:44:37Z</time>
      </trkpt>
      <trkpt lat="45.41605" lon="6.34414">
        <ele>1518.33</ele>
        <time>2013-08-05T16:44:40Z</time>
      </trkpt>
      <trkpt lat="45.41622" lon="6.34388">
        <ele>1516.92</ele>
        <time>2013-08-05T16:44:43Z</time>
      </trkpt>
      <trkpt lat="45.41624" lon="6.34355">
        <ele>1515.43</ele>
        <time>2013-08-05T16:44:46Z</time>
      </trkpt>
      <trkpt lat="45.41604" lon="6.34329">
        <ele>1513.56</ele>
        <time>2013-08-05T16:44:49Z</time>
      </trkpt>
      <trkpt lat="45.41588" lon="6.34313">
        <ele>1512.22</ele>
        <time>2013-08-05T16:44:51Z</time>
      </trkpt>
      <trkpt lat="45.41571" lon="6.34298">
        <ele>1510.98</ele>
        <time>2013-08-05T16:44:53Z</time>
      </trkpt>
      <trkpt lat="45.41553" lon="6.34279">
        <ele>1509.23</ele>
        <time>2013-08-05T16:44:56Z</time>
      </trkpt>
      <trkpt lat="45.41549" lon="6.34249">
        <ele>1507.75</ele>
        <time>2013-08-05T16:44:59Z</time>
      </trkpt>
      <trkpt lat="45.41531" lon="6.34226">
        <ele>1506.76</ele>
        <time>2013-08-05T16:45:02Z</time>
      </trkpt>
      <trkpt lat="45.41515" lon="6.34212">
        <ele>1506.18</ele>
        <time>2013-08-05T16:45:04Z</time>
      </trkpt>
      <trkpt lat="45.415" lon="6.34196">
        <ele>1505.69</ele>
        <time>2013-08-05T16:45:06Z</time>
      </trkpt>
      <trkpt lat="45.41482" lon="6.34172">
        <ele>1504.83</ele>
        <time>2013-08-05T16:45:09Z</time>
      </trkpt>
      <trkpt lat="45.41468" lon="6.34143">
        <ele>1503.89</ele>
        <time>2013-08-05T16:45:12Z</time>
      </trkpt>
      <trkpt lat="45.41451" lon="6.34116">
        <ele>1502.68</ele>
        <time>2013-08-05T16:45:15Z</time>
      </trkpt>
      <trkpt lat="45.41434" lon="6.34092">
        <ele>1501.31</ele>
        <time>2013-08-05T16:45:18Z</time>
      </trkpt>
      <trkpt lat="45.41416" lon="6.34066">
        <ele>1500.04</ele>
        <time>2013-08-05T16:45:21Z</time>
      </trkpt>
      <trkpt lat="45.41405" lon="6.34046">
        <ele>1499.33</ele>
        <time>2013-08-05T16:45:23Z</time>
      </trkpt>
      <trkpt lat="45.41394" lon="6.34021">
        <ele>1498.7</ele>
        <time>2013-08-05T16:45:25Z</time>
      </trkpt>
      <trkpt lat="45.41383" lon="6.33995">
        <ele>1498.12</ele>
        <time>2013-08-05T16:45:27Z</time>
      </trkpt>
      <trkpt lat="45.41371" lon="6.33969">
        <ele>1497.13</ele>
        <time>2013-08-05T16:45:29Z</time>
      </trkpt>
      <trkpt lat="45.41355" lon="6.33944">
        <ele>1495.68</ele>
        <time>2013-08-05T16:45:31Z</time>
      </trkpt>
      <trkpt lat="45.41337" lon="6.33919">
        <ele>1494.25</ele>
        <time>2013-08-05T16:45:33Z</time>
      </trkpt>
      <trkpt lat="45.41318" lon="6.3389">
        <ele>1492.75</ele>
        <time>2013-08-05T16:45:35Z</time>
      </trkpt>
      <trkpt lat="45.41297" lon="6.33861">
        <ele>1490.63</ele>
        <time>2013-08-05T16:45:37Z</time>
      </trkpt>
      <trkpt lat="45.41276" lon="6.33833">
        <ele>1488.33</ele>
        <time>2013-08-05T16:45:39Z</time>
      </trkpt>
      <trkpt lat="45.4126" lon="6.33801">
        <ele>1485.89</ele>
        <time>2013-08-05T16:45:41Z</time>
      </trkpt>
      <trkpt lat="45.41248" lon="6.33769">
        <ele>1483.05</ele>
        <time>2013-08-05T16:45:43Z</time>
      </trkpt>
      <trkpt lat="45.41239" lon="6.33739">
        <ele>1480.39</ele>
        <time>2013-08-05T16:45:45Z</time>
      </trkpt>
      <trkpt lat="45.41233" lon="6.33713">
        <ele>1478.31</ele>
        <time>2013-08-05T16:45:47Z</time>
      </trkpt>
      <trkpt lat="45.41227" lon="6.33684">
        <ele>1476.28</ele>
        <time>2013-08-05T16:45:50Z</time>
      </trkpt>
      <trkpt lat="45.41225" lon="6.33657">
        <ele>1475.48</ele>
        <time>2013-08-05T16:45:54Z</time>
      </trkpt>
      <trkpt lat="45.41223" lon="6.33629">
        <ele>1475.86</ele>
        <time>2013-08-05T16:46:00Z</time>
      </trkpt>
      <trkpt lat="45.41231" lon="6.33604">
        <ele>1476.66</ele>
        <time>2013-08-05T16:46:09Z</time>
      </trkpt>
      <trkpt lat="45.41242" lon="6.33582">
        <ele>1477.79</ele>
        <time>2013-08-05T16:46:19Z</time>
      </trkpt>
      <trkpt lat="45.41245" lon="6.33556">
        <ele>1478.93</ele>
        <time>2013-08-05T16:46:27Z</time>
      </trkpt>
      <trkpt lat="45.41229" lon="6.33542">
        <ele>1480.24</ele>
        <time>2013-08-05T16:46:38Z</time>
      </trkpt>
      <trkpt lat="45.4121" lon="6.33545">
        <ele>1482.82</ele>
        <time>2013-08-05T16:46:52Z</time>
      </trkpt>
      <trkpt lat="45.41193" lon="6.33533">
        <ele>1485.95</ele>
        <time>2013-08-05T16:47:07Z</time>
      </trkpt>
      <trkpt lat="45.41183" lon="6.33511">
        <ele>1488.15</ele>
        <time>2013-08-05T16:47:21Z</time>
      </trkpt>
      <trkpt lat="45.41169" lon="6.33495">
        <ele>1494.62</ele>
        <time>2013-08-05T16:49:37Z</time>
      </trkpt>
      <trkpt lat="45.41154" lon="6.33476">
        <ele>1496.36</ele>
        <time>2013-08-05T16:49:49Z</time>
      </trkpt>
      <trkpt lat="45.41142" lon="6.33455">
        <ele>1498.34</ele>
        <time>2013-08-05T16:50:00Z</time>
      </trkpt>
      <trkpt lat="45.41126" lon="6.3344">
        <ele>1500.54</ele>
        <time>2013-08-05T16:50:13Z</time>
      </trkpt>
      <trkpt lat="45.41116" lon="6.33416">
        <ele>1502.64</ele>
        <time>2013-08-05T16:50:25Z</time>
      </trkpt>
      <trkpt lat="45.41102" lon="6.33399">
        <ele>1504.77</ele>
        <time>2013-08-05T16:50:35Z</time>
      </trkpt>
      <trkpt lat="45.4109" lon="6.3338">
        <ele>1506.73</ele>
        <time>2013-08-05T16:50:42Z</time>
      </trkpt>
      <trkpt lat="45.41075" lon="6.33356">
        <ele>1507.8</ele>
        <time>2013-08-05T16:50:48Z</time>
      </trkpt>
      <trkpt lat="45.41062" lon="6.33338">
        <ele>1508.6</ele>
        <time>2013-08-05T16:50:51Z</time>
      </trkpt>
      <trkpt lat="45.41046" lon="6.33317">
        <ele>1508.69</ele>
        <time>2013-08-05T16:50:55Z</time>
      </trkpt>
      <trkpt lat="45.41032" lon="6.33299">
        <ele>1508.62</ele>
        <time>2013-08-05T16:50:59Z</time>
      </trkpt>
      <trkpt lat="45.41018" lon="6.33279">
        <ele>1508.82</ele>
        <time>2013-08-05T16:51:06Z</time>
      </trkpt>
      <trkpt lat="45.41007" lon="6.33257">
        <ele>1509.26</ele>
        <time>2013-08-05T16:51:13Z</time>
      </trkpt>
      <trkpt lat="45.40994" lon="6.33236">
        <ele>1509.77</ele>
        <time>2013-08-05T16:51:23Z</time>
      </trkpt>
      <trkpt lat="45.40979" lon="6.33212">
        <ele>1508.3</ele>
        <time>2013-08-05T16:51:28Z</time>
      </trkpt>
      <trkpt lat="45.40962" lon="6.33191">
        <ele>1506.37</ele>
        <time>2013-08-05T16:51:32Z</time>
      </trkpt>
      <trkpt lat="45.40947" lon="6.33175">
        <ele>1505.64</ele>
        <time>2013-08-05T16:51:36Z</time>
      </trkpt>
      <trkpt lat="45.40933" lon="6.33155">
        <ele>1505.2</ele>
        <time>2013-08-05T16:51:40Z</time>
      </trkpt>
      <trkpt lat="45.40918" lon="6.33134">
        <ele>1504.33</ele>
        <time>2013-08-05T16:51:44Z</time>
      </trkpt>
      <trkpt lat="45.40906" lon="6.3311">
        <ele>1504.05</ele>
        <time>2013-08-05T16:51:48Z</time>
      </trkpt>
      <trkpt lat="45.40892" lon="6.33085">
        <ele>1505.23</ele>
        <time>2013-08-05T16:51:52Z</time>
      </trkpt>
      <trkpt lat="45.40878" lon="6.33062">
        <ele>1506.07</ele>
        <time>2013-08-05T16:51:56Z</time>
      </trkpt>
      <trkpt lat="45.40866" lon="6.33042">
        <ele>1506.58</ele>
        <time>2013-08-05T16:52:00Z</time>
      </trkpt>
      <trkpt lat="45.40851" lon="6.33017">
        <ele>1506.93</ele>
        <time>2013-08-05T16:52:04Z</time>
      </trkpt>
      <trkpt lat="45.40838" lon="6.32992">
        <ele>1506.87</ele>
        <time>2013-08-05T16:52:09Z</time>
      </trkpt>
      <trkpt lat="45.40828" lon="6.3297">
        <ele>1506.16</ele>
        <time>2013-08-05T16:52:13Z</time>
      </trkpt>
      <trkpt lat="45.40821" lon="6.32945">
        <ele>1504.57</ele>
        <time>2013-08-05T16:52:18Z</time>
      </trkpt>
      <trkpt lat="45.40814" lon="6.32917">
        <ele>1504.04</ele>
        <time>2013-08-05T16:52:24Z</time>
      </trkpt>
      <trkpt lat="45.40819" lon="6.3289">
        <ele>1503.97</ele>
        <time>2013-08-05T16:52:30Z</time>
      </trkpt>
      <trkpt lat="45.40828" lon="6.32865">
        <ele>1504.11</ele>
        <time>2013-08-05T16:52:36Z</time>
      </trkpt>
      <trkpt lat="45.40834" lon="6.3284">
        <ele>1504.45</ele>
        <time>2013-08-05T16:52:42Z</time>
      </trkpt>
      <trkpt lat="45.40834" lon="6.32812">
        <ele>1505.27</ele>
        <time>2013-08-05T16:52:49Z</time>
      </trkpt>
      <trkpt lat="45.40824" lon="6.32788">
        <ele>1506.47</ele>
        <time>2013-08-05T16:52:57Z</time>
      </trkpt>
      <trkpt lat="45.4081" lon="6.32768">
        <ele>1507.37</ele>
        <time>2013-08-05T16:53:06Z</time>
      </trkpt>
      <trkpt lat="45.40793" lon="6.32757">
        <ele>1508.77</ele>
        <time>2013-08-05T16:53:24Z</time>
      </trkpt>
      <trkpt lat="45.40785" lon="6.32733">
        <ele>1511.25</ele>
        <time>2013-08-05T16:53:51Z</time>
      </trkpt>
      <trkpt lat="45.40777" lon="6.32707">
        <ele>1512.16</ele>
        <time>2013-08-05T16:53:59Z</time>
      </trkpt>
      <trkpt lat="45.40777" lon="6.32682">
        <ele>1512.69</ele>
        <time>2013-08-05T16:54:05Z</time>
      </trkpt>
      <trkpt lat="45.40765" lon="6.32661">
        <ele>1513.6</ele>
        <time>2013-08-05T16:54:13Z</time>
      </trkpt>
      <trkpt lat="45.40748" lon="6.32652">
        <ele>1515.09</ele>
        <time>2013-08-05T16:54:25Z</time>
      </trkpt>
      <trkpt lat="45.4073" lon="6.32651">
        <ele>1517.83</ele>
        <time>2013-08-05T16:54:37Z</time>
      </trkpt>
      <trkpt lat="45.40712" lon="6.32641">
        <ele>1521.81</ele>
        <time>2013-08-05T16:54:50Z</time>
      </trkpt>
      <trkpt lat="45.40694" lon="6.32633">
        <ele>1524.96</ele>
        <time>2013-08-05T16:55:02Z</time>
      </trkpt>
      <trkpt lat="45.40683" lon="6.3261">
        <ele>1528.64</ele>
        <time>2013-08-05T16:55:18Z</time>
      </trkpt>
      <trkpt lat="45.40673" lon="6.32588">
        <ele>1530.14</ele>
        <time>2013-08-05T16:55:29Z</time>
      </trkpt>
      <trkpt lat="45.40661" lon="6.32568">
        <ele>1531</ele>
        <time>2013-08-05T16:55:43Z</time>
      </trkpt>
      <trkpt lat="45.40656" lon="6.32542">
        <ele>1531.37</ele>
        <time>2013-08-05T16:55:57Z</time>
      </trkpt>
      <trkpt lat="45.40669" lon="6.32524">
        <ele>1532.31</ele>
        <time>2013-08-05T16:56:09Z</time>
      </trkpt>
      <trkpt lat="45.40678" lon="6.32501">
        <ele>1533.93</ele>
        <time>2013-08-05T16:56:34Z</time>
      </trkpt>
      <trkpt lat="45.40685" lon="6.32476">
        <ele>1535.49</ele>
        <time>2013-08-05T16:56:46Z</time>
      </trkpt>
      <trkpt lat="45.40681" lon="6.32448">
        <ele>1538.07</ele>
        <time>2013-08-05T16:57:00Z</time>
      </trkpt>
      <trkpt lat="45.40687" lon="6.32424">
        <ele>1538.89</ele>
        <time>2013-08-05T16:57:13Z</time>
      </trkpt>
      <trkpt lat="45.40694" lon="6.32399">
        <ele>1539.88</ele>
        <time>2013-08-05T16:57:28Z</time>
      </trkpt>
      <trkpt lat="45.40709" lon="6.32384">
        <ele>1540.51</ele>
        <time>2013-08-05T16:57:39Z</time>
      </trkpt>
      <trkpt lat="45.40719" lon="6.32359">
        <ele>1541.4</ele>
        <time>2013-08-05T16:57:49Z</time>
      </trkpt>
      <trkpt lat="45.40723" lon="6.32333">
        <ele>1542.06</ele>
        <time>2013-08-05T16:57:57Z</time>
      </trkpt>
      <trkpt lat="45.40718" lon="6.32307">
        <ele>1542.95</ele>
        <time>2013-08-05T16:58:07Z</time>
      </trkpt>
      <trkpt lat="45.40702" lon="6.32293">
        <ele>1543.65</ele>
        <time>2013-08-05T16:58:18Z</time>
      </trkpt>
      <trkpt lat="45.40689" lon="6.32274">
        <ele>1545.09</ele>
        <time>2013-08-05T16:58:30Z</time>
      </trkpt>
      <trkpt lat="45.40676" lon="6.32256">
        <ele>1546.88</ele>
        <time>2013-08-05T16:58:40Z</time>
      </trkpt>
      <trkpt lat="45.40663" lon="6.32238">
        <ele>1549.66</ele>
        <time>2013-08-05T16:58:50Z</time>
      </trkpt>
      <trkpt lat="45.40657" lon="6.32212">
        <ele>1553</ele>
        <time>2013-08-05T16:59:01Z</time>
      </trkpt>
      <trkpt lat="45.40653" lon="6.32187">
        <ele>1555.06</ele>
        <time>2013-08-05T16:59:13Z</time>
      </trkpt>
      <trkpt lat="45.40638" lon="6.32171">
        <ele>1557.03</ele>
        <time>2013-08-05T16:59:26Z</time>
      </trkpt>
      <trkpt lat="45.40618" lon="6.32172">
        <ele>1559.24</ele>
        <time>2013-08-05T16:59:40Z</time>
      </trkpt>
      <trkpt lat="45.406" lon="6.32161">
        <ele>1560.1</ele>
        <time>2013-08-05T16:59:51Z</time>
      </trkpt>
      <trkpt lat="45.40581" lon="6.32156">
        <ele>1560.56</ele>
        <time>2013-08-05T16:59:58Z</time>
      </trkpt>
      <trkpt lat="45.40567" lon="6.32138">
        <ele>1560.85</ele>
        <time>2013-08-05T17:00:05Z</time>
      </trkpt>
      <trkpt lat="45.40549" lon="6.32129">
        <ele>1560.84</ele>
        <time>2013-08-05T17:00:11Z</time>
      </trkpt>
      <trkpt lat="45.40532" lon="6.32113">
        <ele>1561.01</ele>
        <time>2013-08-05T17:00:19Z</time>
      </trkpt>
      <trkpt lat="45.40524" lon="6.32089">
        <ele>1561.36</ele>
        <time>2013-08-05T17:00:26Z</time>
      </trkpt>
      <trkpt lat="45.40511" lon="6.32069">
        <ele>1561.25</ele>
        <time>2013-08-05T17:00:32Z</time>
      </trkpt>
      <trkpt lat="45.40496" lon="6.32054">
        <ele>1560.62</ele>
        <time>2013-08-05T17:00:39Z</time>
      </trkpt>
      <trkpt lat="45.40477" lon="6.32058">
        <ele>1560.26</ele>
        <time>2013-08-05T17:00:45Z</time>
      </trkpt>
      <trkpt lat="45.40457" lon="6.32049">
        <ele>1560.14</ele>
        <time>2013-08-05T17:00:51Z</time>
      </trkpt>
      <trkpt lat="45.40441" lon="6.32037">
        <ele>1560.46</ele>
        <time>2013-08-05T17:00:59Z</time>
      </trkpt>
      <trkpt lat="45.40422" lon="6.32029">
        <ele>1560.68</ele>
        <time>2013-08-05T17:01:04Z</time>
      </trkpt>
      <trkpt lat="45.40404" lon="6.32028">
        <ele>1560.81</ele>
        <time>2013-08-05T17:01:09Z</time>
      </trkpt>
      <trkpt lat="45.40386" lon="6.3202">
        <ele>1560.95</ele>
        <time>2013-08-05T17:01:15Z</time>
      </trkpt>
      <trkpt lat="45.40369" lon="6.32011">
        <ele>1560.87</ele>
        <time>2013-08-05T17:01:21Z</time>
      </trkpt>
      <trkpt lat="45.40353" lon="6.31996">
        <ele>1561.04</ele>
        <time>2013-08-05T17:01:29Z</time>
      </trkpt>
      <trkpt lat="45.40344" lon="6.31972">
        <ele>1560.87</ele>
        <time>2013-08-05T17:01:34Z</time>
      </trkpt>
      <trkpt lat="45.40338" lon="6.31945">
        <ele>1560.12</ele>
        <time>2013-08-05T17:01:47Z</time>
      </trkpt>
      <trkpt lat="45.40332" lon="6.3192">
        <ele>1559.66</ele>
        <time>2013-08-05T17:01:52Z</time>
      </trkpt>
      <trkpt lat="45.40325" lon="6.31894">
        <ele>1557.08</ele>
        <time>2013-08-05T17:01:56Z</time>
      </trkpt>
      <trkpt lat="45.40316" lon="6.3187">
        <ele>1555.16</ele>
        <time>2013-08-05T17:01:59Z</time>
      </trkpt>
      <trkpt lat="45.40304" lon="6.31847">
        <ele>1553.73</ele>
        <time>2013-08-05T17:02:02Z</time>
      </trkpt>
      <trkpt lat="45.40289" lon="6.31822">
        <ele>1552.81</ele>
        <time>2013-08-05T17:02:05Z</time>
      </trkpt>
      <trkpt lat="45.40275" lon="6.31803">
        <ele>1551.84</ele>
        <time>2013-08-05T17:02:08Z</time>
      </trkpt>
      <trkpt lat="45.40265" lon="6.3178">
        <ele>1549.86</ele>
        <time>2013-08-05T17:02:12Z</time>
      </trkpt>
      <trkpt lat="45.40261" lon="6.31755">
        <ele>1548.53</ele>
        <time>2013-08-05T17:02:21Z</time>
      </trkpt>
      <trkpt lat="45.40256" lon="6.3173">
        <ele>1548.65</ele>
        <time>2013-08-05T17:02:32Z</time>
      </trkpt>
      <trkpt lat="45.40251" lon="6.31706">
        <ele>1549.53</ele>
        <time>2013-08-05T17:02:45Z</time>
      </trkpt>
      <trkpt lat="45.40247" lon="6.31675">
        <ele>1552.11</ele>
        <time>2013-08-05T17:03:08Z</time>
      </trkpt>
      <trkpt lat="45.40239" lon="6.31653">
        <ele>1555.17</ele>
        <time>2013-08-05T17:03:31Z</time>
      </trkpt>
      <trkpt lat="45.40232" lon="6.31626">
        <ele>1558.66</ele>
        <time>2013-08-05T17:03:52Z</time>
      </trkpt>
      <trkpt lat="45.40223" lon="6.31599">
        <ele>1560.97</ele>
        <time>2013-08-05T17:04:22Z</time>
      </trkpt>
      <trkpt lat="45.40226" lon="6.31573">
        <ele>1563.37</ele>
        <time>2013-08-05T17:04:45Z</time>
      </trkpt>
      <trkpt lat="45.40209" lon="6.31558">
        <ele>1565.8</ele>
        <time>2013-08-05T17:05:10Z</time>
      </trkpt>
      <trkpt lat="45.40189" lon="6.31547">
        <ele>1565.75</ele>
        <time>2013-08-05T17:05:15Z</time>
      </trkpt>
      <trkpt lat="45.40172" lon="6.31539">
        <ele>1563.23</ele>
        <time>2013-08-05T17:05:19Z</time>
      </trkpt>
      <trkpt lat="45.40152" lon="6.31539">
        <ele>1559.11</ele>
        <time>2013-08-05T17:05:23Z</time>
      </trkpt>
      <trkpt lat="45.4013" lon="6.31534">
        <ele>1554.13</ele>
        <time>2013-08-05T17:05:27Z</time>
      </trkpt>
      <trkpt lat="45.40111" lon="6.31526">
        <ele>1549.52</ele>
        <time>2013-08-05T17:05:30Z</time>
      </trkpt>
      <trkpt lat="45.40094" lon="6.31515">
        <ele>1542.31</ele>
        <time>2013-08-05T17:05:38Z</time>
      </trkpt>
      <trkpt lat="45.4009" lon="6.3149">
        <ele>1540.12</ele>
        <time>2013-08-05T17:05:56Z</time>
      </trkpt>
      <trkpt lat="45.40075" lon="6.31465">
        <ele>1537.87</ele>
        <time>2013-08-05T17:06:01Z</time>
      </trkpt>
      <trkpt lat="45.40069" lon="6.31438">
        <ele>1535.52</ele>
        <time>2013-08-05T17:06:05Z</time>
      </trkpt>
      <trkpt lat="45.40074" lon="6.3141">
        <ele>1534.07</ele>
        <time>2013-08-05T17:06:10Z</time>
      </trkpt>
      <trkpt lat="45.40065" lon="6.31381">
        <ele>1533.59</ele>
        <time>2013-08-05T17:06:15Z</time>
      </trkpt>
      <trkpt lat="45.4006" lon="6.31356">
        <ele>1533.11</ele>
        <time>2013-08-05T17:06:18Z</time>
      </trkpt>
      <trkpt lat="45.40047" lon="6.31334">
        <ele>1532.48</ele>
        <time>2013-08-05T17:06:21Z</time>
      </trkpt>
      <trkpt lat="45.4003" lon="6.3132">
        <ele>1531.82</ele>
        <time>2013-08-05T17:06:24Z</time>
      </trkpt>
      <trkpt lat="45.40013" lon="6.31307">
        <ele>1531.64</ele>
        <time>2013-08-05T17:06:27Z</time>
      </trkpt>
      <trkpt lat="45.39996" lon="6.31286">
        <ele>1531.82</ele>
        <time>2013-08-05T17:06:30Z</time>
      </trkpt>
      <trkpt lat="45.39982" lon="6.31265">
        <ele>1532.31</ele>
        <time>2013-08-05T17:06:33Z</time>
      </trkpt>
      <trkpt lat="45.39963" lon="6.31255">
        <ele>1533.16</ele>
        <time>2013-08-05T17:06:37Z</time>
      </trkpt>
      <trkpt lat="45.39946" lon="6.31243">
        <ele>1534.23</ele>
        <time>2013-08-05T17:06:42Z</time>
      </trkpt>
      <trkpt lat="45.39934" lon="6.31223">
        <ele>1534.63</ele>
        <time>2013-08-05T17:06:47Z</time>
      </trkpt>
      <trkpt lat="45.3992" lon="6.31202">
        <ele>1535.2</ele>
        <time>2013-08-05T17:06:52Z</time>
      </trkpt>
      <trkpt lat="45.39911" lon="6.31175">
        <ele>1534.8</ele>
        <time>2013-08-05T17:06:56Z</time>
      </trkpt>
      <trkpt lat="45.3991" lon="6.31147">
        <ele>1534.25</ele>
        <time>2013-08-05T17:06:59Z</time>
      </trkpt>
      <trkpt lat="45.39911" lon="6.31121">
        <ele>1533.65</ele>
        <time>2013-08-05T17:07:02Z</time>
      </trkpt>
      <trkpt lat="45.39905" lon="6.31095">
        <ele>1533.14</ele>
        <time>2013-08-05T17:07:06Z</time>
      </trkpt>
      <trkpt lat="45.39895" lon="6.31071">
        <ele>1533.24</ele>
        <time>2013-08-05T17:07:12Z</time>
      </trkpt>
      <trkpt lat="45.39882" lon="6.3104">
        <ele>1533.73</ele>
        <time>2013-08-05T17:07:16Z</time>
      </trkpt>
      <trkpt lat="45.39869" lon="6.31011">
        <ele>1533.37</ele>
        <time>2013-08-05T17:07:19Z</time>
      </trkpt>
      <trkpt lat="45.39852" lon="6.30991">
        <ele>1532.2</ele>
        <time>2013-08-05T17:07:22Z</time>
      </trkpt>
      <trkpt lat="45.39832" lon="6.30984">
        <ele>1530.72</ele>
        <time>2013-08-05T17:07:26Z</time>
      </trkpt>
      <trkpt lat="45.39815" lon="6.30975">
        <ele>1529.84</ele>
        <time>2013-08-05T17:07:33Z</time>
      </trkpt>
      <trkpt lat="45.39794" lon="6.30964">
        <ele>1530.15</ele>
        <time>2013-08-05T17:07:57Z</time>
      </trkpt>
      <trkpt lat="45.39778" lon="6.30952">
        <ele>1530.61</ele>
        <time>2013-08-05T17:08:15Z</time>
      </trkpt>
      <trkpt lat="45.39765" lon="6.30933">
        <ele>1529.24</ele>
        <time>2013-08-05T17:08:49Z</time>
      </trkpt>
      <trkpt lat="45.39746" lon="6.30926">
        <ele>1525.58</ele>
        <time>2013-08-05T17:09:07Z</time>
      </trkpt>
      <trkpt lat="45.39727" lon="6.30925">
        <ele>1520.27</ele>
        <time>2013-08-05T17:09:23Z</time>
      </trkpt>
      <trkpt lat="45.39711" lon="6.30913">
        <ele>1514.66</ele>
        <time>2013-08-05T17:09:37Z</time>
      </trkpt>
      <trkpt lat="45.39692" lon="6.30925">
        <ele>1502.26</ele>
        <time>2013-08-05T17:10:16Z</time>
      </trkpt>
      <trkpt lat="45.3968" lon="6.30946">
        <ele>1499.47</ele>
        <time>2013-08-05T17:10:25Z</time>
      </trkpt>
      <trkpt lat="45.39664" lon="6.30966">
        <ele>1492.8</ele>
        <time>2013-08-05T17:10:33Z</time>
      </trkpt>
      <trkpt lat="45.39644" lon="6.30967">
        <ele>1483.35</ele>
        <time>2013-08-05T17:10:38Z</time>
      </trkpt>
      <trkpt lat="45.39624" lon="6.30957">
        <ele>1476.07</ele>
        <time>2013-08-05T17:10:43Z</time>
      </trkpt>
      <trkpt lat="45.39604" lon="6.30954">
        <ele>1471.49</ele>
        <time>2013-08-05T17:10:49Z</time>
      </trkpt>
      <trkpt lat="45.39586" lon="6.3095">
        <ele>1468.67</ele>
        <time>2013-08-05T17:10:54Z</time>
      </trkpt>
      <trkpt lat="45.39574" lon="6.3097">
        <ele>1466.16</ele>
        <time>2013-08-05T17:11:07Z</time>
      </trkpt>
      <trkpt lat="45.39561" lon="6.30949">
        <ele>1462.56</ele>
        <time>2013-08-05T17:11:11Z</time>
      </trkpt>
      <trkpt lat="45.39547" lon="6.30933">
        <ele>1458.59</ele>
        <time>2013-08-05T17:11:14Z</time>
      </trkpt>
      <trkpt lat="45.39525" lon="6.30917">
        <ele>1454.33</ele>
        <time>2013-08-05T17:11:17Z</time>
      </trkpt>
      <trkpt lat="45.39511" lon="6.30896">
        <ele>1449.09</ele>
        <time>2013-08-05T17:11:21Z</time>
      </trkpt>
      <trkpt lat="45.395" lon="6.3087">
        <ele>1444.5</ele>
        <time>2013-08-05T17:11:25Z</time>
      </trkpt>
      <trkpt lat="45.39487" lon="6.30895">
        <ele>1437.83</ele>
        <time>2013-08-05T17:11:33Z</time>
      </trkpt>
      <trkpt lat="45.39484" lon="6.30922">
        <ele>1433.36</ele>
        <time>2013-08-05T17:11:39Z</time>
      </trkpt>
      <trkpt lat="45.39476" lon="6.30947">
        <ele>1423.35</ele>
        <time>2013-08-05T17:13:33Z</time>
      </trkpt>
      <trkpt lat="45.39461" lon="6.30971">
        <ele>1416.73</ele>
        <time>2013-08-05T17:13:38Z</time>
      </trkpt>
      <trkpt lat="45.39452" lon="6.30999">
        <ele>1411.96</ele>
        <time>2013-08-05T17:13:42Z</time>
      </trkpt>
      <trkpt lat="45.3945" lon="6.31029">
        <ele>1407.27</ele>
        <time>2013-08-05T17:13:46Z</time>
      </trkpt>
      <trkpt lat="45.39448" lon="6.31055">
        <ele>1403.7</ele>
        <time>2013-08-05T17:13:49Z</time>
      </trkpt>
      <trkpt lat="45.39442" lon="6.31083">
        <ele>1398.82</ele>
        <time>2013-08-05T17:13:53Z</time>
      </trkpt>
      <trkpt lat="45.39432" lon="6.31107">
        <ele>1393.36</ele>
        <time>2013-08-05T17:13:57Z</time>
      </trkpt>
      <trkpt lat="45.39424" lon="6.31131">
        <ele>1386.91</ele>
        <time>2013-08-05T17:14:01Z</time>
      </trkpt>
      <trkpt lat="45.39417" lon="6.31164">
        <ele>1380.17</ele>
        <time>2013-08-05T17:14:05Z</time>
      </trkpt>
      <trkpt lat="45.39412" lon="6.31196">
        <ele>1375.72</ele>
        <time>2013-08-05T17:14:08Z</time>
      </trkpt>
      <trkpt lat="45.39402" lon="6.31223">
        <ele>1371.05</ele>
        <time>2013-08-05T17:14:12Z</time>
      </trkpt>
      <trkpt lat="45.39395" lon="6.31248">
        <ele>1368.01</ele>
        <time>2013-08-05T17:14:18Z</time>
      </trkpt>
      <trkpt lat="45.39378" lon="6.31265">
        <ele>1364.15</ele>
        <time>2013-08-05T17:14:23Z</time>
      </trkpt>
      <trkpt lat="45.39366" lon="6.3129">
        <ele>1358.22</ele>
        <time>2013-08-05T17:14:28Z</time>
      </trkpt>
      <trkpt lat="45.39347" lon="6.31277">
        <ele>1350.96</ele>
        <time>2013-08-05T17:14:36Z</time>
      </trkpt>
      <trkpt lat="45.39336" lon="6.31256">
        <ele>1345.93</ele>
        <time>2013-08-05T17:14:41Z</time>
      </trkpt>
      <trkpt lat="45.39338" lon="6.31287">
        <ele>1341.54</ele>
        <time>2013-08-05T17:14:50Z</time>
      </trkpt>
      <trkpt lat="45.39321" lon="6.31272">
        <ele>1331.64</ele>
        <time>2013-08-05T17:15:01Z</time>
      </trkpt>
      <trkpt lat="45.39308" lon="6.31249">
        <ele>1329.48</ele>
        <time>2013-08-05T17:15:04Z</time>
      </trkpt>
      <trkpt lat="45.39296" lon="6.31222">
        <ele>1327.69</ele>
        <time>2013-08-05T17:15:07Z</time>
      </trkpt>
      <trkpt lat="45.3929" lon="6.31188">
        <ele>1326.14</ele>
        <time>2013-08-05T17:15:10Z</time>
      </trkpt>
      <trkpt lat="45.39286" lon="6.31162">
        <ele>1325.27</ele>
        <time>2013-08-05T17:15:12Z</time>
      </trkpt>
      <trkpt lat="45.39276" lon="6.31127">
        <ele>1324.02</ele>
        <time>2013-08-05T17:15:15Z</time>
      </trkpt>
      <trkpt lat="45.39266" lon="6.31105">
        <ele>1323.17</ele>
        <time>2013-08-05T17:15:17Z</time>
      </trkpt>
      <trkpt lat="45.39254" lon="6.31084">
        <ele>1322.29</ele>
        <time>2013-08-05T17:15:19Z</time>
      </trkpt>
      <trkpt lat="45.39235" lon="6.3107">
        <ele>1321.3</ele>
        <time>2013-08-05T17:15:21Z</time>
      </trkpt>
      <trkpt lat="45.39215" lon="6.31062">
        <ele>1319.89</ele>
        <time>2013-08-05T17:15:23Z</time>
      </trkpt>
      <trkpt lat="45.39193" lon="6.31055">
        <ele>1318.42</ele>
        <time>2013-08-05T17:15:25Z</time>
      </trkpt>
      <trkpt lat="45.39169" lon="6.31049">
        <ele>1317.06</ele>
        <time>2013-08-05T17:15:27Z</time>
      </trkpt>
      <trkpt lat="45.39146" lon="6.31042">
        <ele>1315.79</ele>
        <time>2013-08-05T17:15:29Z</time>
      </trkpt>
      <trkpt lat="45.3912" lon="6.31037">
        <ele>1314.46</ele>
        <time>2013-08-05T17:15:31Z</time>
      </trkpt>
      <trkpt lat="45.39093" lon="6.31037">
        <ele>1312.95</ele>
        <time>2013-08-05T17:15:33Z</time>
      </trkpt>
      <trkpt lat="45.39065" lon="6.3104">
        <ele>1311.12</ele>
        <time>2013-08-05T17:15:35Z</time>
      </trkpt>
      <trkpt lat="45.39038" lon="6.31042">
        <ele>1308.97</ele>
        <time>2013-08-05T17:15:37Z</time>
      </trkpt>
      <trkpt lat="45.39013" lon="6.31037">
        <ele>1306.69</ele>
        <time>2013-08-05T17:15:39Z</time>
      </trkpt>
      <trkpt lat="45.38989" lon="6.31022">
        <ele>1304.26</ele>
        <time>2013-08-05T17:15:41Z</time>
      </trkpt>
      <trkpt lat="45.38965" lon="6.31005">
        <ele>1301.88</ele>
        <time>2013-08-05T17:15:43Z</time>
      </trkpt>
      <trkpt lat="45.38943" lon="6.30985">
        <ele>1299.53</ele>
        <time>2013-08-05T17:15:45Z</time>
      </trkpt>
      <trkpt lat="45.38921" lon="6.30963">
        <ele>1297.25</ele>
        <time>2013-08-05T17:15:47Z</time>
      </trkpt>
      <trkpt lat="45.38894" lon="6.3095">
        <ele>1294.98</ele>
        <time>2013-08-05T17:15:49Z</time>
      </trkpt>
      <trkpt lat="45.38868" lon="6.30944">
        <ele>1292.82</ele>
        <time>2013-08-05T17:15:51Z</time>
      </trkpt>
      <trkpt lat="45.38844" lon="6.30939">
        <ele>1290.71</ele>
        <time>2013-08-05T17:15:53Z</time>
      </trkpt>
      <trkpt lat="45.38823" lon="6.30935">
        <ele>1288.47</ele>
        <time>2013-08-05T17:15:55Z</time>
      </trkpt>
      <trkpt lat="45.388" lon="6.30932">
        <ele>1285.18</ele>
        <time>2013-08-05T17:15:58Z</time>
      </trkpt>
      <trkpt lat="45.3878" lon="6.30923">
        <ele>1282.7</ele>
        <time>2013-08-05T17:16:01Z</time>
      </trkpt>
      <trkpt lat="45.38763" lon="6.30904">
        <ele>1281.31</ele>
        <time>2013-08-05T17:16:04Z</time>
      </trkpt>
      <trkpt lat="45.38747" lon="6.30883">
        <ele>1280.49</ele>
        <time>2013-08-05T17:16:07Z</time>
      </trkpt>
      <trkpt lat="45.3873" lon="6.30863">
        <ele>1279.83</ele>
        <time>2013-08-05T17:16:10Z</time>
      </trkpt>
      <trkpt lat="45.38711" lon="6.30847">
        <ele>1279.29</ele>
        <time>2013-08-05T17:16:13Z</time>
      </trkpt>
      <trkpt lat="45.38689" lon="6.30834">
        <ele>1278.94</ele>
        <time>2013-08-05T17:16:16Z</time>
      </trkpt>
      <trkpt lat="45.38664" lon="6.30824">
        <ele>1278.85</ele>
        <time>2013-08-05T17:16:19Z</time>
      </trkpt>
      <trkpt lat="45.38647" lon="6.3082">
        <ele>1278.69</ele>
        <time>2013-08-05T17:16:21Z</time>
      </trkpt>
      <trkpt lat="45.38628" lon="6.30816">
        <ele>1278.48</ele>
        <time>2013-08-05T17:16:23Z</time>
      </trkpt>
      <trkpt lat="45.38609" lon="6.30814">
        <ele>1278.18</ele>
        <time>2013-08-05T17:16:25Z</time>
      </trkpt>
      <trkpt lat="45.3859" lon="6.30811">
        <ele>1277.66</ele>
        <time>2013-08-05T17:16:27Z</time>
      </trkpt>
      <trkpt lat="45.38572" lon="6.3081">
        <ele>1277.06</ele>
        <time>2013-08-05T17:16:29Z</time>
      </trkpt>
      <trkpt lat="45.38554" lon="6.30808">
        <ele>1276.42</ele>
        <time>2013-08-05T17:16:31Z</time>
      </trkpt>
      <trkpt lat="45.38535" lon="6.30807">
        <ele>1275.66</ele>
        <time>2013-08-05T17:16:33Z</time>
      </trkpt>
      <trkpt lat="45.38515" lon="6.30806">
        <ele>1274.91</ele>
        <time>2013-08-05T17:16:35Z</time>
      </trkpt>
      <trkpt lat="45.38497" lon="6.30804">
        <ele>1274.24</ele>
        <time>2013-08-05T17:16:37Z</time>
      </trkpt>
      <trkpt lat="45.38479" lon="6.30803">
        <ele>1273.57</ele>
        <time>2013-08-05T17:16:39Z</time>
      </trkpt>
      <trkpt lat="45.3846" lon="6.30802">
        <ele>1272.98</ele>
        <time>2013-08-05T17:16:41Z</time>
      </trkpt>
      <trkpt lat="45.38441" lon="6.30799">
        <ele>1272.35</ele>
        <time>2013-08-05T17:16:43Z</time>
      </trkpt>
      <trkpt lat="45.38422" lon="6.30793">
        <ele>1271.74</ele>
        <time>2013-08-05T17:16:45Z</time>
      </trkpt>
      <trkpt lat="45.38403" lon="6.30787">
        <ele>1271.25</ele>
        <time>2013-08-05T17:16:47Z</time>
      </trkpt>
      <trkpt lat="45.38384" lon="6.3078">
        <ele>1270.63</ele>
        <time>2013-08-05T17:16:49Z</time>
      </trkpt>
      <trkpt lat="45.38363" lon="6.30772">
        <ele>1269.87</ele>
        <time>2013-08-05T17:16:51Z</time>
      </trkpt>
      <trkpt lat="45.38343" lon="6.30763">
        <ele>1268.88</ele>
        <time>2013-08-05T17:16:53Z</time>
      </trkpt>
      <trkpt lat="45.38323" lon="6.30754">
        <ele>1267.89</ele>
        <time>2013-08-05T17:16:55Z</time>
      </trkpt>
      <trkpt lat="45.38305" lon="6.30744">
        <ele>1267.2</ele>
        <time>2013-08-05T17:16:57Z</time>
      </trkpt>
      <trkpt lat="45.38287" lon="6.30734">
        <ele>1266.66</ele>
        <time>2013-08-05T17:16:59Z</time>
      </trkpt>
      <trkpt lat="45.38269" lon="6.3072">
        <ele>1266.28</ele>
        <time>2013-08-05T17:17:01Z</time>
      </trkpt>
      <trkpt lat="45.38252" lon="6.30706">
        <ele>1265.94</ele>
        <time>2013-08-05T17:17:03Z</time>
      </trkpt>
      <trkpt lat="45.38236" lon="6.3069">
        <ele>1265.35</ele>
        <time>2013-08-05T17:17:05Z</time>
      </trkpt>
      <trkpt lat="45.38223" lon="6.30665">
        <ele>1264.47</ele>
        <time>2013-08-05T17:17:07Z</time>
      </trkpt>
      <trkpt lat="45.38211" lon="6.30638">
        <ele>1263.41</ele>
        <time>2013-08-05T17:17:09Z</time>
      </trkpt>
      <trkpt lat="45.38198" lon="6.30611">
        <ele>1262.25</ele>
        <time>2013-08-05T17:17:11Z</time>
      </trkpt>
      <trkpt lat="45.38185" lon="6.30586">
        <ele>1260.94</ele>
        <time>2013-08-05T17:17:13Z</time>
      </trkpt>
      <trkpt lat="45.38173" lon="6.30562">
        <ele>1259.58</ele>
        <time>2013-08-05T17:17:15Z</time>
      </trkpt>
      <trkpt lat="45.38161" lon="6.30539">
        <ele>1258.4</ele>
        <time>2013-08-05T17:17:17Z</time>
      </trkpt>
      <trkpt lat="45.38151" lon="6.30513">
        <ele>1257.41</ele>
        <time>2013-08-05T17:17:19Z</time>
      </trkpt>
      <trkpt lat="45.38141" lon="6.30487">
        <ele>1256.53</ele>
        <time>2013-08-05T17:17:21Z</time>
      </trkpt>
      <trkpt lat="45.3813" lon="6.30465">
        <ele>1255.68</ele>
        <time>2013-08-05T17:17:23Z</time>
      </trkpt>
      <trkpt lat="45.3812" lon="6.30437">
        <ele>1254.38</ele>
        <time>2013-08-05T17:17:26Z</time>
      </trkpt>
      <trkpt lat="45.38127" lon="6.30406">
        <ele>1253.51</ele>
        <time>2013-08-05T17:17:29Z</time>
      </trkpt>
      <trkpt lat="45.3814" lon="6.30374">
        <ele>1252.92</ele>
        <time>2013-08-05T17:17:32Z</time>
      </trkpt>
      <trkpt lat="45.38135" lon="6.30337">
        <ele>1252.07</ele>
        <time>2013-08-05T17:17:35Z</time>
      </trkpt>
      <trkpt lat="45.38121" lon="6.3032">
        <ele>1251.32</ele>
        <time>2013-08-05T17:17:37Z</time>
      </trkpt>
      <trkpt lat="45.38106" lon="6.30304">
        <ele>1250.67</ele>
        <time>2013-08-05T17:17:39Z</time>
      </trkpt>
      <trkpt lat="45.38093" lon="6.30287">
        <ele>1250.13</ele>
        <time>2013-08-05T17:17:41Z</time>
      </trkpt>
      <trkpt lat="45.38073" lon="6.3026">
        <ele>1249.33</ele>
        <time>2013-08-05T17:17:44Z</time>
      </trkpt>
      <trkpt lat="45.3806" lon="6.30242">
        <ele>1248.85</ele>
        <time>2013-08-05T17:17:46Z</time>
      </trkpt>
      <trkpt lat="45.38038" lon="6.30226">
        <ele>1248.15</ele>
        <time>2013-08-05T17:17:49Z</time>
      </trkpt>
      <trkpt lat="45.38016" lon="6.30221">
        <ele>1247.83</ele>
        <time>2013-08-05T17:17:52Z</time>
      </trkpt>
      <trkpt lat="45.37993" lon="6.30219">
        <ele>1248.13</ele>
        <time>2013-08-05T17:17:56Z</time>
      </trkpt>
      <trkpt lat="45.37975" lon="6.30212">
        <ele>1248.54</ele>
        <time>2013-08-05T17:18:02Z</time>
      </trkpt>
      <trkpt lat="45.37962" lon="6.30235">
        <ele>1248.7</ele>
        <time>2013-08-05T17:18:42Z</time>
      </trkpt>
      <trkpt lat="45.37975" lon="6.30258">
        <ele>1245.84</ele>
        <time>2013-08-05T17:19:11Z</time>
      </trkpt>
      <trkpt lat="45.37994" lon="6.30267">
        <ele>1244.04</ele>
        <time>2013-08-05T17:19:20Z</time>
      </trkpt>
      <trkpt lat="45.37974" lon="6.3028">
        <ele>1236.5</ele>
        <time>2013-08-05T17:19:35Z</time>
      </trkpt>
      <trkpt lat="45.37956" lon="6.3028">
        <ele>1231.5</ele>
        <time>2013-08-05T17:19:42Z</time>
      </trkpt>
      <trkpt lat="45.37936" lon="6.30282">
        <ele>1227.1</ele>
        <time>2013-08-05T17:20:00Z</time>
      </trkpt>
      <trkpt lat="45.37916" lon="6.30282">
        <ele>1225.73</ele>
        <time>2013-08-05T17:20:06Z</time>
      </trkpt>
      <trkpt lat="45.37896" lon="6.30281">
        <ele>1224.2</ele>
        <time>2013-08-05T17:20:12Z</time>
      </trkpt>
      <trkpt lat="45.37875" lon="6.30285">
        <ele>1217.78</ele>
        <time>2013-08-05T17:20:16Z</time>
      </trkpt>
      <trkpt lat="45.37857" lon="6.30278">
        <ele>1210.07</ele>
        <time>2013-08-05T17:20:20Z</time>
      </trkpt>
      <trkpt lat="45.3784" lon="6.30267">
        <ele>1205.8</ele>
        <time>2013-08-05T17:20:25Z</time>
      </trkpt>
      <trkpt lat="45.37826" lon="6.30249">
        <ele>1203.6</ele>
        <time>2013-08-05T17:20:30Z</time>
      </trkpt>
      <trkpt lat="45.37819" lon="6.30273">
        <ele>1199.1</ele>
        <time>2013-08-05T17:20:43Z</time>
      </trkpt>
      <trkpt lat="45.37824" lon="6.303">
        <ele>1196.8</ele>
        <time>2013-08-05T17:20:49Z</time>
      </trkpt>
      <trkpt lat="45.37805" lon="6.303">
        <ele>1194.32</ele>
        <time>2013-08-05T17:20:56Z</time>
      </trkpt>
      <trkpt lat="45.3779" lon="6.30319">
        <ele>1181.83</ele>
        <time>2013-08-05T17:21:22Z</time>
      </trkpt>
      <trkpt lat="45.37775" lon="6.30337">
        <ele>1172.32</ele>
        <time>2013-08-05T17:21:40Z</time>
      </trkpt>
      <trkpt lat="45.37755" lon="6.30341">
        <ele>1167.01</ele>
        <time>2013-08-05T17:21:50Z</time>
      </trkpt>
      <trkpt lat="45.37733" lon="6.30338">
        <ele>1158.61</ele>
        <time>2013-08-05T17:22:02Z</time>
      </trkpt>
      <trkpt lat="45.37715" lon="6.30334">
        <ele>1152.51</ele>
        <time>2013-08-05T17:22:07Z</time>
      </trkpt>
      <trkpt lat="45.37696" lon="6.3033">
        <ele>1148.6</ele>
        <time>2013-08-05T17:22:13Z</time>
      </trkpt>
      <trkpt lat="45.37682" lon="6.30311">
        <ele>1144.07</ele>
        <time>2013-08-05T17:22:21Z</time>
      </trkpt>
      <trkpt lat="45.37663" lon="6.30313">
        <ele>1140.7</ele>
        <time>2013-08-05T17:22:27Z</time>
      </trkpt>
      <trkpt lat="45.37652" lon="6.30335">
        <ele>1133.32</ele>
        <time>2013-08-05T17:22:56Z</time>
      </trkpt>
      <trkpt lat="45.37637" lon="6.3035">
        <ele>1129.46</ele>
        <time>2013-08-05T17:23:03Z</time>
      </trkpt>
      <trkpt lat="45.37618" lon="6.30351">
        <ele>1126.42</ele>
        <time>2013-08-05T17:23:08Z</time>
      </trkpt>
      <trkpt lat="45.37625" lon="6.30376">
        <ele>1117.78</ele>
        <time>2013-08-05T17:23:21Z</time>
      </trkpt>
      <trkpt lat="45.37605" lon="6.30373">
        <ele>1111.85</ele>
        <time>2013-08-05T17:23:30Z</time>
      </trkpt>
      <trkpt lat="45.37589" lon="6.30351">
        <ele>1108.54</ele>
        <time>2013-08-05T17:23:35Z</time>
      </trkpt>
      <trkpt lat="45.37574" lon="6.30367">
        <ele>1095.93</ele>
        <time>2013-08-05T17:23:45Z</time>
      </trkpt>
      <trkpt lat="45.37576" lon="6.30393">
        <ele>1086.7</ele>
        <time>2013-08-05T17:23:57Z</time>
      </trkpt>
      <trkpt lat="45.37558" lon="6.30401">
        <ele>1082.91</ele>
        <time>2013-08-05T17:24:04Z</time>
      </trkpt>
      <trkpt lat="45.37538" lon="6.30414">
        <ele>1071.94</ele>
        <time>2013-08-05T17:24:25Z</time>
      </trkpt>
      <trkpt lat="45.3752" lon="6.30401">
        <ele>1068.32</ele>
        <time>2013-08-05T17:24:31Z</time>
      </trkpt>
      <trkpt lat="45.375" lon="6.30404">
        <ele>1048.63</ele>
        <time>2013-08-05T17:25:05Z</time>
      </trkpt>
      <trkpt lat="45.3749" lon="6.30426">
        <ele>1039.88</ele>
        <time>2013-08-05T17:25:20Z</time>
      </trkpt>
      <trkpt lat="45.3747" lon="6.30431">
        <ele>1034.78</ele>
        <time>2013-08-05T17:25:29Z</time>
      </trkpt>
      <trkpt lat="45.37452" lon="6.30409">
        <ele>1028</ele>
        <time>2013-08-05T17:25:34Z</time>
      </trkpt>
      <trkpt lat="45.37446" lon="6.30384">
        <ele>1017.72</ele>
        <time>2013-08-05T17:25:38Z</time>
      </trkpt>
      <trkpt lat="45.37441" lon="6.30357">
        <ele>1011.53</ele>
        <time>2013-08-05T17:25:42Z</time>
      </trkpt>
      <trkpt lat="45.37441" lon="6.3033">
        <ele>1007.18</ele>
        <time>2013-08-05T17:25:48Z</time>
      </trkpt>
      <trkpt lat="45.37453" lon="6.30309">
        <ele>1004.43</ele>
        <time>2013-08-05T17:25:54Z</time>
      </trkpt>
      <trkpt lat="45.37435" lon="6.30303">
        <ele>997.9</ele>
        <time>2013-08-05T17:26:09Z</time>
      </trkpt>
      <trkpt lat="45.37417" lon="6.30314">
        <ele>993.53</ele>
        <time>2013-08-05T17:26:18Z</time>
      </trkpt>
      <trkpt lat="45.37405" lon="6.30335">
        <ele>974.02</ele>
        <time>2013-08-05T17:27:22Z</time>
      </trkpt>
      <trkpt lat="45.37387" lon="6.30342">
        <ele>967.74</ele>
        <time>2013-08-05T17:27:35Z</time>
      </trkpt>
      <trkpt lat="45.3739" lon="6.30314">
        <ele>962.95</ele>
        <time>2013-08-05T17:27:44Z</time>
      </trkpt>
      <trkpt lat="45.37392" lon="6.30288">
        <ele>956.58</ele>
        <time>2013-08-05T17:27:58Z</time>
      </trkpt>
      <trkpt lat="45.37387" lon="6.30262">
        <ele>948.37</ele>
        <time>2013-08-05T17:28:15Z</time>
      </trkpt>
      <trkpt lat="45.37397" lon="6.30239">
        <ele>946.07</ele>
        <time>2013-08-05T17:28:20Z</time>
      </trkpt>
      <trkpt lat="45.37394" lon="6.3021">
        <ele>934.93</ele>
        <time>2013-08-05T17:28:36Z</time>
      </trkpt>
      <trkpt lat="45.37374" lon="6.30218">
        <ele>916.65</ele>
        <time>2013-08-05T17:28:46Z</time>
      </trkpt>
      <trkpt lat="45.3736" lon="6.30236">
        <ele>903.42</ele>
        <time>2013-08-05T17:28:52Z</time>
      </trkpt>
      <trkpt lat="45.37342" lon="6.30233">
        <ele>896.94</ele>
        <time>2013-08-05T17:29:04Z</time>
      </trkpt>
      <trkpt lat="45.37336" lon="6.30259">
        <ele>894.07</ele>
        <time>2013-08-05T17:29:11Z</time>
      </trkpt>
      <trkpt lat="45.37317" lon="6.30261">
        <ele>885.69</ele>
        <time>2013-08-05T17:29:31Z</time>
      </trkpt>
      <trkpt lat="45.3731" lon="6.30285">
        <ele>881.72</ele>
        <time>2013-08-05T17:29:42Z</time>
      </trkpt>
      <trkpt lat="45.37291" lon="6.30279">
        <ele>915.39</ele>
        <time>2013-08-05T17:31:01Z</time>
      </trkpt>
      <trkpt lat="45.37277" lon="6.30297">
        <ele>831.19</ele>
        <time>2013-08-05T17:32:29Z</time>
      </trkpt>
      <trkpt lat="45.37259" lon="6.30304">
        <ele>830.47</ele>
        <time>2013-08-05T17:33:08Z</time>
      </trkpt>
      <trkpt lat="45.37246" lon="6.30324">
        <ele>828.76</ele>
        <time>2013-08-05T17:33:17Z</time>
      </trkpt>
      <trkpt lat="45.37236" lon="6.30347">
        <ele>826.6</ele>
        <time>2013-08-05T17:33:24Z</time>
      </trkpt>
      <trkpt lat="45.37224" lon="6.30327">
        <ele>812.85</ele>
        <time>2013-08-05T17:34:11Z</time>
      </trkpt>
      <trkpt lat="45.37205" lon="6.30323">
        <ele>806.84</ele>
        <time>2013-08-05T17:34:26Z</time>
      </trkpt>
      <trkpt lat="45.37193" lon="6.30346">
        <ele>804.07</ele>
        <time>2013-08-05T17:34:32Z</time>
      </trkpt>
      <trkpt lat="45.37182" lon="6.30367">
        <ele>800.94</ele>
        <time>2013-08-05T17:34:39Z</time>
      </trkpt>
      <trkpt lat="45.37166" lon="6.30384">
        <ele>798.35</ele>
        <time>2013-08-05T17:34:45Z</time>
      </trkpt>
      <trkpt lat="45.37158" lon="6.3036">
        <ele>788.72</ele>
        <time>2013-08-05T17:35:03Z</time>
      </trkpt>
      <trkpt lat="45.37157" lon="6.30334">
        <ele>781.73</ele>
        <time>2013-08-05T17:35:19Z</time>
      </trkpt>
      <trkpt lat="45.37161" lon="6.30308">
        <ele>776.77</ele>
        <time>2013-08-05T17:35:30Z</time>
      </trkpt>
      <trkpt lat="45.37141" lon="6.3031">
        <ele>766.93</ele>
        <time>2013-08-05T17:35:57Z</time>
      </trkpt>
      <trkpt lat="45.37129" lon="6.30329">
        <ele>759.2</ele>
        <time>2013-08-05T17:36:17Z</time>
      </trkpt>
      <trkpt lat="45.37111" lon="6.30332">
        <ele>749.84</ele>
        <time>2013-08-05T17:36:39Z</time>
      </trkpt>
      <trkpt lat="45.37099" lon="6.30352">
        <ele>742.42</ele>
        <time>2013-08-05T17:36:57Z</time>
      </trkpt>
      <trkpt lat="45.37086" lon="6.3037">
        <ele>735.06</ele>
        <time>2013-08-05T17:37:18Z</time>
      </trkpt>
      <trkpt lat="45.37068" lon="6.30385">
        <ele>728.07</ele>
        <time>2013-08-05T17:37:22Z</time>
      </trkpt>
      <trkpt lat="45.37047" lon="6.30395">
        <ele>717.45</ele>
        <time>2013-08-05T17:37:26Z</time>
      </trkpt>
      <trkpt lat="45.37028" lon="6.30385">
        <ele>710.65</ele>
        <time>2013-08-05T17:37:30Z</time>
      </trkpt>
      <trkpt lat="45.3701" lon="6.3038">
        <ele>706.84</ele>
        <time>2013-08-05T17:37:43Z</time>
      </trkpt>
      <trkpt lat="45.36992" lon="6.30386">
        <ele>703.72</ele>
        <time>2013-08-05T17:38:20Z</time>
      </trkpt>
      <trkpt lat="45.36975" lon="6.30376">
        <ele>700.32</ele>
        <time>2013-08-05T17:38:43Z</time>
      </trkpt>
      <trkpt lat="45.36957" lon="6.30366">
        <ele>694.29</ele>
        <time>2013-08-05T17:39:05Z</time>
      </trkpt>
      <trkpt lat="45.3694" lon="6.30358">
        <ele>691.95</ele>
        <time>2013-08-05T17:39:12Z</time>
      </trkpt>
      <trkpt lat="45.36924" lon="6.30371">
        <ele>680.6</ele>
        <time>2013-08-05T17:39:43Z</time>
      </trkpt>
      <trkpt lat="45.36909" lon="6.30386">
        <ele>671.45</ele>
        <time>2013-08-05T17:40:04Z</time>
      </trkpt>
      <trkpt lat="45.36891" lon="6.30381">
        <ele>665.97</ele>
        <time>2013-08-05T17:40:16Z</time>
      </trkpt>
      <trkpt lat="45.36874" lon="6.30364">
        <ele>662.4</ele>
        <time>2013-08-05T17:40:23Z</time>
      </trkpt>
      <trkpt lat="45.36855" lon="6.30366">
        <ele>654.81</ele>
        <time>2013-08-05T17:40:30Z</time>
      </trkpt>
      <trkpt lat="45.36836" lon="6.30361">
        <ele>646.97</ele>
        <time>2013-08-05T17:40:38Z</time>
      </trkpt>
      <trkpt lat="45.36821" lon="6.30375">
        <ele>642.25</ele>
        <time>2013-08-05T17:40:45Z</time>
      </trkpt>
      <trkpt lat="45.36806" lon="6.30394">
        <ele>638.43</ele>
        <time>2013-08-05T17:40:52Z</time>
      </trkpt>
      <trkpt lat="45.36793" lon="6.30418">
        <ele>630.46</ele>
        <time>2013-08-05T17:40:56Z</time>
      </trkpt>
      <trkpt lat="45.36788" lon="6.30444">
        <ele>618.97</ele>
        <time>2013-08-05T17:41:00Z</time>
      </trkpt>
      <trkpt lat="45.36772" lon="6.30463">
        <ele>610.55</ele>
        <time>2013-08-05T17:41:05Z</time>
      </trkpt>
      <trkpt lat="45.36753" lon="6.30448">
        <ele>601.95</ele>
        <time>2013-08-05T17:41:52Z</time>
      </trkpt>
      <trkpt lat="45.3674" lon="6.30427">
        <ele>596.26</ele>
        <time>2013-08-05T17:41:57Z</time>
      </trkpt>
      <trkpt lat="45.36721" lon="6.30427">
        <ele>591.77</ele>
        <time>2013-08-05T17:42:17Z</time>
      </trkpt>
      <trkpt lat="45.36703" lon="6.30429">
        <ele>589.15</ele>
        <time>2013-08-05T17:42:32Z</time>
      </trkpt>
      <trkpt lat="45.36703" lon="6.30456">
        <ele>587.63</ele>
        <time>2013-08-05T17:42:39Z</time>
      </trkpt>
      <trkpt lat="45.36713" lon="6.3048">
        <ele>586.5</ele>
        <time>2013-08-05T17:42:46Z</time>
      </trkpt>
      <trkpt lat="45.36717" lon="6.30505">
        <ele>585.99</ele>
        <time>2013-08-05T17:42:53Z</time>
      </trkpt>
      <trkpt lat="45.36722" lon="6.30532">
        <ele>585.63</ele>
        <time>2013-08-05T17:43:00Z</time>
      </trkpt>
      <trkpt lat="45.36714" lon="6.30557">
        <ele>586.45</ele>
        <time>2013-08-05T17:43:11Z</time>
      </trkpt>
      <trkpt lat="45.36715" lon="6.30585">
        <ele>586.72</ele>
        <time>2013-08-05T17:43:21Z</time>
      </trkpt>
      <trkpt lat="45.36732" lon="6.30603">
        <ele>587.07</ele>
        <time>2013-08-05T17:43:30Z</time>
      </trkpt>
      <trkpt lat="45.36749" lon="6.30619">
        <ele>587.99</ele>
        <time>2013-08-05T17:43:38Z</time>
      </trkpt>
      <trkpt lat="45.36763" lon="6.30637">
        <ele>588.27</ele>
        <time>2013-08-05T17:43:42Z</time>
      </trkpt>
      <trkpt lat="45.36776" lon="6.30654">
        <ele>588.26</ele>
        <time>2013-08-05T17:43:46Z</time>
      </trkpt>
      <trkpt lat="45.36793" lon="6.30667">
        <ele>587.58</ele>
        <time>2013-08-05T17:43:50Z</time>
      </trkpt>
      <trkpt lat="45.36811" lon="6.30674">
        <ele>587.21</ele>
        <time>2013-08-05T17:43:56Z</time>
      </trkpt>
      <trkpt lat="45.36828" lon="6.30691">
        <ele>587.36</ele>
        <time>2013-08-05T17:44:01Z</time>
      </trkpt>
      <trkpt lat="45.36846" lon="6.30704">
        <ele>588.24</ele>
        <time>2013-08-05T17:44:06Z</time>
      </trkpt>
      <trkpt lat="45.36863" lon="6.3072">
        <ele>588.15</ele>
        <time>2013-08-05T17:44:10Z</time>
      </trkpt>
      <trkpt lat="45.3688" lon="6.30737">
        <ele>588.65</ele>
        <time>2013-08-05T17:44:14Z</time>
      </trkpt>
      <trkpt lat="45.36898" lon="6.30745">
        <ele>591.42</ele>
        <time>2013-08-05T17:44:19Z</time>
      </trkpt>
      <trkpt lat="45.36916" lon="6.30758">
        <ele>592.94</ele>
        <time>2013-08-05T17:44:30Z</time>
      </trkpt>
      <trkpt lat="45.36931" lon="6.30775">
        <ele>593.42</ele>
        <time>2013-08-05T17:44:40Z</time>
      </trkpt>
      <trkpt lat="45.36948" lon="6.30795">
        <ele>593.46</ele>
        <time>2013-08-05T17:44:45Z</time>
      </trkpt>
      <trkpt lat="45.36965" lon="6.3082">
        <ele>592.13</ele>
        <time>2013-08-05T17:44:49Z</time>
      </trkpt>
      <trkpt lat="45.36982" lon="6.30835">
        <ele>590.24</ele>
        <time>2013-08-05T17:44:52Z</time>
      </trkpt>
      <trkpt lat="45.36999" lon="6.3085">
        <ele>588.4</ele>
        <time>2013-08-05T17:44:58Z</time>
      </trkpt>
      <trkpt lat="45.37014" lon="6.30868">
        <ele>587.79</ele>
        <time>2013-08-05T17:45:04Z</time>
      </trkpt>
      <trkpt lat="45.3703" lon="6.30886">
        <ele>587.59</ele>
        <time>2013-08-05T17:45:11Z</time>
      </trkpt>
      <trkpt lat="45.3704" lon="6.30912">
        <ele>589.15</ele>
        <time>2013-08-05T17:45:16Z</time>
      </trkpt>
      <trkpt lat="45.3705" lon="6.30933">
        <ele>591.88</ele>
        <time>2013-08-05T17:45:20Z</time>
      </trkpt>
      <trkpt lat="45.37061" lon="6.3096">
        <ele>591.71</ele>
        <time>2013-08-05T17:45:23Z</time>
      </trkpt>
      <trkpt lat="45.37074" lon="6.30992">
        <ele>589.17</ele>
        <time>2013-08-05T17:45:26Z</time>
      </trkpt>
      <trkpt lat="45.37083" lon="6.3102">
        <ele>584.47</ele>
        <time>2013-08-05T17:45:30Z</time>
      </trkpt>
      <trkpt lat="45.37078" lon="6.31044">
        <ele>581.02</ele>
        <time>2013-08-05T17:45:33Z</time>
      </trkpt>
      <trkpt lat="45.37067" lon="6.31078">
        <ele>578.57</ele>
        <time>2013-08-05T17:45:36Z</time>
      </trkpt>
      <trkpt lat="45.37056" lon="6.31111">
        <ele>575.29</ele>
        <time>2013-08-05T17:45:39Z</time>
      </trkpt>
      <trkpt lat="45.37052" lon="6.31138">
        <ele>570.17</ele>
        <time>2013-08-05T17:45:44Z</time>
      </trkpt>
      <trkpt lat="45.37063" lon="6.3116">
        <ele>567.88</ele>
        <time>2013-08-05T17:45:50Z</time>
      </trkpt>
      <trkpt lat="45.37078" lon="6.3118">
        <ele>565.14</ele>
        <time>2013-08-05T17:45:55Z</time>
      </trkpt>
      <trkpt lat="45.37093" lon="6.31198">
        <ele>564.54</ele>
        <time>2013-08-05T17:46:00Z</time>
      </trkpt>
      <trkpt lat="45.37108" lon="6.31216">
        <ele>564.8</ele>
        <time>2013-08-05T17:46:06Z</time>
      </trkpt>
      <trkpt lat="45.37115" lon="6.3124">
        <ele>565.08</ele>
        <time>2013-08-05T17:46:12Z</time>
      </trkpt>
      <trkpt lat="45.37121" lon="6.31268">
        <ele>565.45</ele>
        <time>2013-08-05T17:46:19Z</time>
      </trkpt>
      <trkpt lat="45.37134" lon="6.31289">
        <ele>566.11</ele>
        <time>2013-08-05T17:46:26Z</time>
      </trkpt>
      <trkpt lat="45.3715" lon="6.31301">
        <ele>567.33</ele>
        <time>2013-08-05T17:46:37Z</time>
      </trkpt>
      <trkpt lat="45.37166" lon="6.31313">
        <ele>569.31</ele>
        <time>2013-08-05T17:46:59Z</time>
      </trkpt>
      <trkpt lat="45.37181" lon="6.31328">
        <ele>570.97</ele>
        <time>2013-08-05T17:47:09Z</time>
      </trkpt>
    </trkseg>
  </trk>
</gpx>